Time;durP1;ratioP1;P1;durP2;ratioP2;P2;SDS_P1;SDS_P2;PMS_P1;PMS_P2;Temp;Humidity;BMP_temperature;BMP_pressure;BME280_temperature;BME280_humidity;BME280_pressure;Samples;Min_cycle;Max_cycle;Signal;HPM_P1;HPM_P2
2022/04/09 00:00:10;;;;;;;0.50;0.50;;;;;;;6.28;63.11;99767.91;5246894;27;20596;-78
2022/04/09 00:02:40;;;;;;;0.70;0.70;;;;;;;6.09;64.68;99780.53;5249690;27;20479;-78
2022/04/09 00:05:12;;;;;;;0.80;0.80;;;;;;;6.07;64.89;99776.25;5275257;27;20051;-78
2022/04/09 00:07:43;;;;;;;0.50;0.50;;;;;;;6.03;65.29;99780.69;5266254;27;21449;-78
2022/04/09 00:10:14;;;;;;;3.13;1.58;;;;;;;6.21;63.49;99789.78;5264390;27;20039;-78
2022/04/09 00:12:46;;;;;;;0.75;0.75;;;;;;;6.06;64.50;99795.38;5296851;27;20039;-78
2022/04/09 00:15:17;;;;;;;0.30;0.30;;;;;;;6.15;64.84;99800.38;5298919;27;20050;-79
2022/04/09 00:17:47;;;;;;;2.70;1.10;;;;;;;5.80;65.81;99809.78;5253735;27;20027;-78
2022/04/09 00:20:21;;;;;;;0.65;0.65;;;;;;;5.81;66.95;99814.13;5259020;27;20293;-78
2022/04/09 00:22:55;;;;;;;0.50;0.50;;;;;;;5.95;66.27;99821.63;5249689;27;20035;-78
2022/04/09 00:25:25;;;;;;;;;;;;;;;5.86;66.49;99829.63;5263721;27;20119;-78
2022/04/09 00:27:56;;;;;;;0.50;0.50;;;;;;;5.71;67.22;99836.03;5276138;27;19919;-78
2022/04/09 00:30:26;;;;;;;0.32;0.32;;;;;;;5.85;67.00;99839.19;5251428;27;20113;-79
2022/04/09 00:32:57;;;;;;;1.10;1.02;;;;;;;5.71;67.12;99838.63;5298495;27;20041;-79
2022/04/09 00:35:27;;;;;;;0.40;0.40;;;;;;;5.89;66.24;99840.84;5250152;27;20045;-78
2022/04/09 00:37:58;;;;;;;0.50;0.50;;;;;;;5.80;66.63;99847.09;5257742;27;20088;-79
2022/04/09 00:40:28;;;;;;;0.47;0.47;;;;;;;5.87;66.62;99847.81;5279810;27;20088;-78
2022/04/09 00:42:59;;;;;;;0.40;0.40;;;;;;;5.76;66.42;99857.59;5281245;27;20035;-79
2022/04/09 00:45:29;;;;;;;2.67;1.65;;;;;;;5.80;66.75;99867.06;5257317;28;20047;-79
2022/04/09 00:48:00;;;;;;;0.30;0.30;;;;;;;5.74;66.93;99856.78;5248632;27;20038;-78
2022/04/09 00:50:31;;;;;;;1.10;1.10;;;;;;;5.82;67.35;99868.75;5257116;27;20046;-79
2022/04/09 00:53:03;;;;;;;0.30;0.30;;;;;;;5.69;67.51;99872.50;5275797;27;20130;-78
2022/04/09 00:58:25;;;;;;;0.30;0.30;;;;;;;5.70;67.27;99886.38;5277522;27;20031;-78
2022/04/09 01:00:58;;;;;;;0.43;0.43;;;;;;;5.66;67.43;99891.63;5276950;27;20081;-78
2022/04/09 01:03:29;;;;;;;1.05;1.05;;;;;;;5.66;67.48;99896.81;5271104;27;20027;-79
2022/04/09 01:05:59;;;;;;;0.40;0.40;;;;;;;5.58;68.89;99908.28;5273866;27;20040;-78
2022/04/09 01:08:30;;;;;;;0.50;0.50;;;;;;;5.65;67.87;99918.56;5279024;27;20038;-78
2022/04/09 01:11:00;;;;;;;2.42;2.05;;;;;;;5.77;67.11;99913.97;5275297;27;20532;-78
2022/04/09 01:13:31;;;;;;;0.50;0.50;;;;;;;5.76;67.90;99925.28;5293224;27;20033;-78
2022/04/09 01:16:02;;;;;;;0.47;0.47;;;;;;;5.45;68.52;99925.88;5243569;27;20067;-77
2022/04/09 01:18:33;;;;;;;0.85;0.85;;;;;;;5.58;68.24;99934.31;5280887;27;20375;-77
2022/04/09 01:21:07;;;;;;;0.40;0.40;;;;;;;5.44;69.12;99934.56;5245874;27;20034;-80
2022/04/09 01:23:37;;;;;;;0.70;0.70;;;;;;;5.21;70.13;99943.66;5267983;27;20031;-78
2022/04/09 01:26:08;;;;;;;0.75;0.75;;;;;;;5.36;68.71;99952.94;5277165;27;20036;-78
2022/04/09 01:28:38;;;;;;;0.30;0.30;;;;;;;5.49;68.36;99953.56;5259971;27;20405;-78
2022/04/09 01:31:09;;;;;;;0.38;0.38;;;;;;;5.28;69.80;99953.06;5292271;27;20038;-78
2022/04/09 01:33:39;;;;;;;0.40;0.40;;;;;;;5.31;69.17;99960.81;5266474;27;20054;-80
2022/04/09 01:36:10;;;;;;;1.58;1.48;;;;;;;5.28;69.56;99958.25;5277592;27;20036;-80
2022/04/09 01:38:43;;;;;;;0.88;0.88;;;;;;;5.43;68.59;99964.94;5268933;27;20026;-77
2022/04/09 01:41:14;;;;;;;0.40;0.40;;;;;;;5.50;68.02;99973.47;5271346;27;20057;-78
2022/04/09 01:43:44;;;;;;;0.60;0.60;;;;;;;5.54;67.32;99976.91;5247163;28;20031;-78
2022/04/09 01:46:15;;;;;;;6.13;1.88;;;;;;;5.48;68.19;99980.47;5260964;27;20340;-78
2022/04/09 01:48:45;;;;;;;2.17;0.95;;;;;;;5.38;68.70;99989.31;5295975;27;20030;-78
2022/04/09 01:51:19;;;;;;;0.70;0.70;;;;;;;5.53;67.67;99999.44;5271858;27;20031;-78
2022/04/09 01:53:52;;;;;;;2.22;1.10;;;;;;;5.37;69.51;99996.28;5261269;28;20062;-78
2022/04/09 01:56:22;;;;;;;0.40;0.40;;;;;;;5.19;69.72;100002.63;5274607;27;20066;-78
2022/04/09 01:58:53;;;;;;;2.50;2.15;;;;;;;5.14;70.36;100013.09;5260482;28;20034;-78
2022/04/09 02:01:23;;;;;;;0.50;0.50;;;;;;;5.10;70.13;100016.66;5274334;28;20088;-78
2022/04/09 02:03:54;;;;;;;0.43;0.43;;;;;;;5.23;70.63;100013.84;5263529;28;20037;-78
2022/04/09 02:06:25;;;;;;;0.68;0.68;;;;;;;4.99;71.71;100011.63;5293950;27;20130;-78
2022/04/09 02:08:55;;;;;;;0.30;0.30;;;;;;;5.21;69.70;100024.28;5268416;27;20110;-78
2022/04/09 02:11:26;;;;;;;0.65;0.65;;;;;;;5.27;69.40;100029.38;5296021;27;20478;-78
2022/04/09 02:13:56;;;;;;;0.43;0.43;;;;;;;5.25;69.51;100031.13;5265538;28;20372;-78
2022/04/09 02:16:28;;;;;;;0.30;0.30;;;;;;;5.29;69.62;100035.41;5259386;27;20327;-79
2022/04/09 02:18:58;;;;;;;0.30;0.30;;;;;;;5.08;70.78;100041.81;5275254;27;20135;-78
2022/04/09 02:21:29;;;;;;;0.40;0.40;;;;;;;5.35;68.81;100042.25;5275896;28;20160;-78
2022/04/09 02:23:59;;;;;;;0.30;0.30;;;;;;;5.13;70.73;100046.94;5279217;27;20079;-78
2022/04/09 02:26:30;;;;;;;0.93;0.93;;;;;;;5.20;69.98;100049.44;5252646;27;20042;-77
2022/04/09 02:29:00;;;;;;;0.98;0.98;;;;;;;5.16;70.09;100052.94;5248743;27;20146;-78
2022/04/09 02:31:31;;;;;;;0.50;0.50;;;;;;;5.05;70.87;100060.03;5264807;27;20484;-78
2022/04/09 02:34:01;;;;;;;0.30;0.30;;;;;;;4.88;71.67;100068.09;5258541;27;20117;-78
2022/04/09 02:36:32;;;;;;;3.88;2.25;;;;;;;4.85;71.73;100073.34;5297408;27;20050;-78
2022/04/09 02:39:04;;;;;;;0.43;0.43;;;;;;;4.81;71.68;100071.69;5278203;27;20603;-78
2022/04/09 02:41:34;;;;;;;0.30;0.30;;;;;;;5.18;69.11;100082.41;5267166;27;20043;-78
2022/04/09 02:44:06;;;;;;;0.45;0.45;;;;;;;4.95;71.02;100090.53;5299508;27;20364;-78
2022/04/09 02:46:37;;;;;;;0.57;0.50;;;;;;;5.05;70.22;100096.44;5275012;27;20024;-78
2022/04/09 02:49:10;;;;;;;2.55;1.80;;;;;;;4.94;70.80;100096.59;5275177;27;20036;-78
2022/04/09 02:51:41;;;;;;;0.40;0.40;;;;;;;4.68;72.64;100103.00;5266503;27;20499;-77
2022/04/09 02:54:15;;;;;;;4.68;1.48;;;;;;;4.76;71.56;100104.66;5268706;27;20039;-77
2022/04/09 02:56:49;;;;;;;0.57;0.57;;;;;;;4.95;70.43;100106.13;5274034;27;20058;-78
2022/04/09 02:59:22;;;;;;;0.40;0.40;;;;;;;4.79;71.98;100107.22;5260599;27;20039;-77
2022/04/09 03:01:53;;;;;;;1.80;1.70;;;;;;;4.95;71.32;100110.47;5269595;27;20489;-77
2022/04/09 03:04:23;;;;;;;0.32;0.32;;;;;;;4.84;71.49;100118.41;5250980;27;20036;-77
2022/04/09 03:06:56;;;;;;;0.40;0.40;;;;;;;4.87;71.31;100132.25;5277342;27;20042;-77
2022/04/09 03:09:26;;;;;;;0.75;0.73;;;;;;;4.86;71.76;100130.53;5241344;27;20039;-77
2022/04/09 03:11:57;;;;;;;0.95;0.95;;;;;;;4.83;71.31;100137.50;5281269;27;20040;-77
2022/04/09 03:14:31;;;;;;;0.68;0.68;;;;;;;5.06;70.52;100144.13;5269246;27;20039;-77
2022/04/09 03:17:01;;;;;;;1.45;1.20;;;;;;;4.73;71.84;100145.41;5258928;27;20039;-77
2022/04/09 03:19:32;;;;;;;0.32;0.32;;;;;;;4.58;72.68;100145.59;5284876;27;20035;-77
2022/04/09 03:22:02;;;;;;;7.05;0.80;;;;;;;4.64;72.60;100155.91;5297672;27;20062;-78
2022/04/09 03:24:36;;;;;;;0.60;0.60;;;;;;;4.62;72.80;100157.66;5277768;27;20077;-79
2022/04/09 03:27:06;;;;;;;0.30;0.30;;;;;;;4.60;73.05;100162.00;5268409;27;20492;-80
2022/04/09 03:29:36;;;;;;;0.40;0.40;;;;;;;4.49;73.69;100161.28;5257263;27;20039;-79
2022/04/09 03:32:07;;;;;;;0.30;0.30;;;;;;;4.59;73.14;100162.88;5267576;27;20255;-79
2022/04/09 03:34:41;;;;;;;;;;;;;;;4.76;72.01;100161.81;5282793;27;20040;-80
2022/04/09 03:37:11;;;;;;;0.55;0.55;;;;;;;4.78;71.90;100168.75;5286679;27;19920;-79
2022/04/09 03:39:43;;;;;;;0.60;0.60;;;;;;;4.65;72.83;100175.84;5276888;27;20043;-77
2022/04/09 03:42:13;;;;;;;0.40;0.40;;;;;;;4.77;72.07;100172.22;5275254;27;20046;-78
2022/04/09 03:44:43;;;;;;;4.75;3.15;;;;;;;4.69;72.22;100181.84;5250224;27;20496;-77
2022/04/09 03:47:14;;;;;;;0.93;0.90;;;;;;;4.68;72.98;100191.38;5283303;27;20496;-77
2022/04/09 03:49:44;;;;;;;0.88;0.88;;;;;;;4.68;72.76;100193.13;5278482;27;20505;-77
2022/04/09 03:52:15;;;;;;;1.00;1.00;;;;;;;4.59;72.78;100204.47;5262622;27;20031;-77
2022/04/09 03:54:45;;;;;;;1.25;1.23;;;;;;;4.72;73.09;100203.47;5259345;27;20031;-77
2022/04/09 03:57:16;;;;;;;0.40;0.40;;;;;;;4.66;72.92;100208.75;5271067;27;20035;-78
2022/04/09 03:59:46;;;;;;;14.23;2.88;;;;;;;4.76;72.38;100209.50;5281922;27;20569;-77
2022/04/09 04:02:17;;;;;;;0.30;0.30;;;;;;;4.61;73.70;100207.91;5296173;27;20031;-77
2022/04/09 04:04:47;;;;;;;2.35;1.92;;;;;;;4.55;74.10;100215.78;5261775;27;20372;-77
2022/04/09 04:07:23;;;;;;;0.45;0.45;;;;;;;4.65;72.86;100216.53;5279190;27;20039;-77
2022/04/09 04:09:53;;;;;;;2.47;2.10;;;;;;;4.63;73.50;100221.75;5299052;27;20489;-77
2022/04/09 04:12:26;;;;;;;0.30;0.30;;;;;;;4.62;73.06;100211.38;5279149;27;20122;-77
2022/04/09 04:14:59;;;;;;;0.65;0.65;;;;;;;4.76;72.34;100221.59;5247260;27;20023;-77
2022/04/09 04:17:40;;;;;;;0.40;0.40;;;;;;;4.55;74.13;100216.63;5298269;27;20126;-78
2022/04/09 04:20:11;;;;;;;2.30;1.05;;;;;;;4.64;72.95;100223.47;5257774;27;20130;-77
2022/04/09 04:22:42;;;;;;;0.57;0.57;;;;;;;4.60;72.75;100229.56;5277379;27;20039;-77
2022/04/09 04:25:12;;;;;;;21.35;2.03;;;;;;;4.61;73.36;100231.28;5250628;27;20038;-78
2022/04/09 04:27:49;;;;;;;1.02;1.02;;;;;;;4.67;72.91;100227.78;5294796;27;20710;-78
2022/04/09 04:30:19;;;;;;;0.88;0.57;;;;;;;4.64;73.13;100239.06;5261042;27;20119;-77
2022/04/09 04:32:50;;;;;;;1.50;1.50;;;;;;;4.69;72.90;100236.44;5264781;27;20647;-78
2022/04/09 04:35:20;;;;;;;0.75;0.75;;;;;;;4.59;72.54;100243.44;5249645;27;20091;-78
2022/04/09 04:37:51;;;;;;;0.98;0.98;;;;;;;4.62;73.22;100253.81;5282816;27;20047;-77
2022/04/09 04:40:21;;;;;;;0.30;0.30;;;;;;;4.56;72.83;100269.47;5249635;27;20042;-77
2022/04/09 04:42:52;;;;;;;3.72;1.70;;;;;;;4.70;72.23;100264.13;5296855;27;20260;-80
2022/04/09 04:45:25;;;;;;;0.30;0.30;;;;;;;4.54;72.66;100272.09;5285356;27;20047;-78
2022/04/09 04:47:56;;;;;;;0.57;0.57;;;;;;;4.56;72.74;100279.88;5282382;27;20031;-78
2022/04/09 04:50:26;;;;;;;1.02;0.95;;;;;;;4.43;73.21;100286.91;5295016;27;20047;-78
2022/04/09 04:52:57;;;;;;;1.50;1.40;;;;;;;4.40;73.32;100298.19;5252812;27;20030;-78
2022/04/09 04:55:28;;;;;;;0.30;0.30;;;;;;;4.41;73.53;100297.31;5273034;27;20039;-78
2022/04/09 04:57:59;;;;;;;0.40;0.40;;;;;;;4.56;72.39;100298.06;5277305;27;20133;-78
2022/04/09 05:00:29;;;;;;;0.63;0.63;;;;;;;4.61;72.21;100298.84;5247064;27;20406;-78
2022/04/09 05:03:00;;;;;;;0.40;0.40;;;;;;;4.59;72.41;100300.59;5274388;27;20384;-78
2022/04/09 05:05:31;;;;;;;0.50;0.50;;;;;;;4.41;73.14;100309.44;5303250;27;20076;-78
2022/04/09 05:08:01;;;;;;;0.40;0.40;;;;;;;4.45;73.12;100316.34;5277404;27;20571;-78
2022/04/09 05:10:34;;;;;;;1.42;1.08;;;;;;;4.45;73.13;100320.66;5296987;27;20041;-78
2022/04/09 05:13:05;;;;;;;1.13;1.13;;;;;;;4.38;73.21;100318.13;5278333;27;20027;-78
2022/04/09 05:15:35;;;;;;;1.17;1.17;;;;;;;4.53;73.29;100324.06;5277882;27;20433;-78
2022/04/09 05:18:06;;;;;;;1.50;1.40;;;;;;;4.65;72.53;100333.47;5298890;27;20031;-78
2022/04/09 05:20:36;;;;;;;0.52;0.52;;;;;;;4.41;73.81;100328.50;5272506;27;20027;-78
2022/04/09 05:23:07;;;;;;;0.60;0.60;;;;;;;4.36;74.14;100337.19;5271613;27;20031;-77
2022/04/09 05:25:37;;;;;;;0.40;0.40;;;;;;;4.39;74.44;100340.63;5282414;27;20031;-77
2022/04/09 05:28:09;;;;;;;0.52;0.52;;;;;;;4.29;74.01;100344.16;5277671;27;20515;-77
2022/04/09 05:30:43;;;;;;;0.70;0.70;;;;;;;4.29;74.70;100354.53;5261595;27;20168;-77
2022/04/09 05:33:14;;;;;;;0.40;0.40;;;;;;;4.33;74.53;100350.19;5274199;27;20042;-78
2022/04/09 05:35:44;;;;;;;0.40;0.40;;;;;;;4.27;74.95;100360.63;5278879;27;20435;-77
2022/04/09 05:38:15;;;;;;;0.70;0.70;;;;;;;4.19;74.91;100358.06;5263556;27;20038;-76
2022/04/09 05:40:46;;;;;;;1.08;1.00;;;;;;;4.24;75.15;100361.50;5255891;27;20042;-80
2022/04/09 05:43:17;;;;;;;0.57;0.57;;;;;;;4.39;74.45;100363.13;5262859;27;20035;-78
2022/04/09 05:45:47;;;;;;;0.30;0.30;;;;;;;4.23;75.52;100370.19;5258168;27;20032;-77
2022/04/09 05:48:17;;;;;;;0.63;0.63;;;;;;;4.26;75.48;100370.13;5285059;27;20046;-77
2022/04/09 05:50:48;;;;;;;0.40;0.40;;;;;;;4.24;75.33;100372.75;5277388;27;20050;-77
2022/04/09 05:53:19;;;;;;;0.68;0.68;;;;;;;4.19;75.82;100382.31;5292532;28;20023;-77
2022/04/09 05:55:50;;;;;;;0.57;0.57;;;;;;;4.19;75.96;100389.22;5262043;27;20116;-77
2022/04/09 05:58:20;;;;;;;0.77;0.77;;;;;;;4.17;75.68;100385.81;5274268;28;20031;-78
2022/04/09 06:01:00;;;;;;;0.40;0.40;;;;;;;4.18;75.64;100400.47;5278079;27;20049;-78
2022/04/09 06:03:34;;;;;;;4.70;1.85;;;;;;;4.12;76.02;100408.31;5278003;27;20051;-80
2022/04/09 06:06:05;;;;;;;0.60;0.60;;;;;;;4.28;75.44;100415.16;5276120;28;20038;-78
2022/04/09 06:08:35;;;;;;;0.50;0.50;;;;;;;4.29;74.91;100419.47;5287962;27;20031;-80
2022/04/09 06:11:06;;;;;;;0.30;0.30;;;;;;;4.29;75.81;100418.63;5282105;28;20036;-79
2022/04/09 06:13:37;;;;;;;0.38;0.38;;;;;;;4.20;76.03;100425.59;5266070;27;20038;-79
2022/04/09 06:16:09;;;;;;;0.30;0.30;;;;;;;4.21;75.93;100426.44;5253495;28;20443;-78
2022/04/09 06:18:41;;;;;;;0.40;0.40;;;;;;;4.27;76.00;100428.16;5252345;27;20518;-78
2022/04/09 06:21:13;;;;;;;0.30;0.30;;;;;;;4.30;76.11;100433.34;5261477;28;20043;-79
2022/04/09 06:23:43;;;;;;;0.60;0.60;;;;;;;4.35;76.09;100436.75;5289151;27;20480;-78
2022/04/09 06:26:14;;;;;;;0.85;0.85;;;;;;;4.38;75.75;100437.59;5264748;28;20519;-79
2022/04/09 06:28:44;;;;;;;1.35;0.85;;;;;;;4.47;75.58;100436.66;5276842;27;20475;-80
2022/04/09 06:31:14;;;;;;;1.05;1.05;;;;;;;4.45;75.49;100445.34;5259585;28;20047;-79
2022/04/09 06:33:45;;;;;;;0.40;0.40;;;;;;;4.50;75.40;100448.81;5280843;27;20028;-80
2022/04/09 06:36:16;;;;;;;3.40;1.92;;;;;;;4.53;75.35;100451.38;5270474;28;20051;-79
2022/04/09 06:38:46;;;;;;;1.05;1.05;;;;;;;4.63;74.90;100453.03;5282435;27;20214;-79
2022/04/09 06:41:19;;;;;;;1.75;1.65;;;;;;;4.64;75.48;100454.75;5300363;27;20114;-79
2022/04/09 06:43:52;;;;;;;0.40;0.40;;;;;;;4.64;75.32;100454.75;5284929;27;20042;-80
2022/04/09 06:46:23;;;;;;;1.42;1.33;;;;;;;4.87;74.98;100470.22;5269071;28;20045;-80
2022/04/09 06:48:56;;;;;;;1.67;1.58;;;;;;;5.08;74.36;100470.88;5261890;28;20079;-79
2022/04/09 06:51:26;;;;;;;0.40;0.40;;;;;;;5.07;74.44;100471.75;5271651;28;20034;-80
2022/04/09 06:53:57;;;;;;;0.35;0.35;;;;;;;5.10;74.20;100473.47;5241843;28;20049;-80
2022/04/09 06:56:27;;;;;;;0.50;0.50;;;;;;;5.17;74.41;100473.41;5275714;27;20046;-79
2022/04/09 06:58:58;;;;;;;0.68;0.68;;;;;;;5.28;73.73;100483.72;5264588;28;20524;-79
2022/04/09 07:01:30;;;;;;;0.82;0.77;;;;;;;5.10;73.79;100476.06;5262859;28;20371;-79
2022/04/09 07:04:03;;;;;;;0.50;0.50;;;;;;;5.16;73.62;100483.84;5277883;28;20019;-79
2022/04/09 07:06:34;;;;;;;1.15;1.15;;;;;;;5.15;73.61;100492.53;5271560;27;20034;-79
2022/04/09 07:09:05;;;;;;;1.02;0.98;;;;;;;5.30;73.31;100496.72;5302529;27;20030;-79
2022/04/09 07:11:35;;;;;;;0.40;0.40;;;;;;;5.22;74.01;100502.00;5284492;27;20150;-79
2022/04/09 07:14:06;;;;;;;1.05;1.00;;;;;;;5.34;72.68;100512.28;5254048;27;20122;-80
2022/04/09 07:16:36;;;;;;;0.40;0.40;;;;;;;5.42;73.12;100511.34;5298104;27;20027;-79
2022/04/09 07:19:09;;;;;;;1.05;1.05;;;;;;;5.35;73.71;100514.00;5288129;27;20046;-79
2022/04/09 07:21:39;;;;;;;0.68;0.68;;;;;;;5.44;72.96;100514.81;5296163;27;20118;-78
2022/04/09 07:24:10;;;;;;;0.93;0.93;;;;;;;5.37;73.34;100521.81;5262071;27;20134;-79
2022/04/09 07:26:40;;;;;;;0.95;0.88;;;;;;;5.43;72.58;100518.28;5279503;27;20042;-79
2022/04/09 07:29:11;;;;;;;0.60;0.60;;;;;;;5.43;72.24;100521.75;5270766;27;20046;-79
2022/04/09 07:31:42;;;;;;;0.40;0.40;;;;;;;5.45;72.16;100527.81;5304550;27;20034;-79
2022/04/09 07:34:12;;;;;;;2.05;1.73;;;;;;;5.49;71.96;100531.25;5267440;27;20546;-79
2022/04/09 07:36:43;;;;;;;1.38;1.35;;;;;;;5.53;72.68;100530.34;5251280;27;20376;-79
2022/04/09 07:39:13;;;;;;;1.65;0.93;;;;;;;5.59;72.59;100539.84;5262511;27;20056;-80
2022/04/09 07:41:44;;;;;;;0.73;0.73;;;;;;;5.55;72.90;100540.72;5250199;27;20038;-79
2022/04/09 07:44:14;;;;;;;0.30;0.30;;;;;;;5.74;72.23;100544.03;5274588;27;20050;-80
2022/04/09 07:46:45;;;;;;;0.50;0.50;;;;;;;5.70;72.40;100548.41;5248712;27;20027;-79
2022/04/09 07:49:15;;;;;;;1.05;1.05;;;;;;;5.65;72.46;100551.06;5287425;27;20028;-79
2022/04/09 07:51:46;;;;;;;10.52;1.20;;;;;;;5.80;72.33;100546.56;5282881;27;20055;-79
2022/04/09 07:54:19;;;;;;;0.30;0.30;;;;;;;5.77;72.76;100562.22;5300825;27;20046;-80
2022/04/09 07:56:50;;;;;;;0.20;0.20;;;;;;;5.86;71.97;100556.06;5285283;27;20039;-79
2022/04/09 07:59:21;;;;;;;0.55;0.55;;;;;;;5.82;71.00;100560.44;5282388;27;20119;-79
2022/04/09 08:01:51;;;;;;;0.85;0.85;;;;;;;5.87;71.56;100553.44;5281223;27;20031;-79
2022/04/09 08:04:21;;;;;;;0.40;0.40;;;;;;;5.93;71.22;100555.97;5269216;27;20149;-79
2022/04/09 08:06:52;;;;;;;1.50;1.40;;;;;;;6.05;70.82;100561.97;5303913;27;20047;-79
2022/04/09 08:09:25;;;;;;;0.85;0.85;;;;;;;6.12;71.39;100571.44;5278265;27;20041;-79
2022/04/09 08:11:55;;;;;;;0.32;0.32;;;;;;;6.12;71.25;100561.00;5253058;27;20034;-79
2022/04/09 08:14:26;;;;;;;0.82;0.82;;;;;;;6.12;71.05;100571.44;5268944;27;20092;-79
2022/04/09 08:16:57;;;;;;;3.70;0.60;;;;;;;6.16;70.56;100573.13;5270609;27;20629;-79
2022/04/09 08:19:27;;;;;;;2.75;1.58;;;;;;;6.26;70.36;100569.53;5285606;27;20254;-80
2022/04/09 08:21:59;;;;;;;0.40;0.40;;;;;;;6.29;70.58;100572.13;5288580;27;20216;-80
2022/04/09 08:24:30;;;;;;;1.92;1.27;;;;;;;6.37;69.98;100571.16;5278991;27;20453;-80
2022/04/09 08:27:00;;;;;;;0.30;0.30;;;;;;;6.45;71.00;100571.91;5252792;27;20035;-79
2022/04/09 08:29:32;;;;;;;0.52;0.52;;;;;;;6.52;69.57;100576.16;5286138;27;20064;-80
2022/04/09 08:32:04;;;;;;;0.40;0.40;;;;;;;6.57;69.06;100568.28;5271084;27;20348;-79
2022/04/09 08:34:35;;;;;;;1.75;1.27;;;;;;;6.60;68.17;100566.50;5293890;27;20050;-78
2022/04/09 08:37:09;;;;;;;1.55;1.15;;;;;;;6.72;67.95;100575.06;5248473;27;20449;-78
2022/04/09 08:39:39;;;;;;;13.80;1.10;;;;;;;6.77;67.98;100575.84;5282045;27;20035;-79
2022/04/09 08:42:12;;;;;;;0.98;0.98;;;;;;;6.83;67.79;100582.72;5264173;27;20095;-80
2022/04/09 08:44:42;;;;;;;0.40;0.40;;;;;;;6.83;66.47;100573.16;5298693;27;20062;-79
2022/04/09 08:47:15;;;;;;;0.40;0.40;;;;;;;6.81;66.38;100587.97;5296877;27;20265;-80
2022/04/09 08:49:48;;;;;;;0.43;0.43;;;;;;;6.86;66.42;100580.94;5302012;27;20044;-80
2022/04/09 08:52:18;;;;;;;1.30;0.95;;;;;;;6.93;65.72;100585.19;5277023;27;20039;-80
2022/04/09 08:54:48;;;;;;;0.47;0.47;;;;;;;7.01;66.13;100592.03;5275210;27;20036;-80
2022/04/09 08:57:20;;;;;;;0.65;0.65;;;;;;;7.13;65.66;100604.91;5280588;27;20387;-80
2022/04/09 08:59:52;;;;;;;1.00;1.00;;;;;;;7.15;64.75;100603.13;5283896;27;20058;-80
2022/04/09 09:02:23;;;;;;;0.30;0.30;;;;;;;7.17;63.40;100596.16;5288845;27;20590;-81
2022/04/09 09:04:53;;;;;;;0.30;0.30;;;;;;;7.12;63.58;100605.78;5274278;27;20070;-80
2022/04/09 09:07:24;;;;;;;0.80;0.80;;;;;;;7.22;64.37;100609.13;5285805;27;20160;-81
2022/04/09 09:10:15;;;;;;;0.60;0.60;;;;;;;7.18;64.13;100597.88;5279053;27;20046;-80
2022/04/09 09:12:56;;;;;;;0.30;0.30;;;;;;;7.17;64.67;100598.75;5269315;27;20096;-81
2022/04/09 09:15:27;;;;;;;2.60;1.17;;;;;;;7.18;63.73;100602.25;5269807;27;20414;-80
2022/04/09 09:17:58;;;;;;;0.90;0.85;;;;;;;7.25;63.57;100604.72;5268573;27;20039;-81
2022/04/09 09:20:29;;;;;;;0.40;0.40;;;;;;;7.30;63.51;100607.25;5297983;27;20655;-80
2022/04/09 09:22:59;;;;;;;0.52;0.52;;;;;;;7.30;63.24;100606.41;5278471;27;20031;-77
2022/04/09 09:25:30;;;;;;;1.70;1.30;;;;;;;7.35;62.05;100615.03;5277589;27;20123;-78
2022/04/09 09:28:01;;;;;;;6.80;1.42;;;;;;;7.35;62.16;100615.03;5258724;27;20031;-78
2022/04/09 09:30:48;;;;;;;0.50;0.50;;;;;;;7.41;60.74;100614.91;5260757;27;20042;-79
2022/04/09 09:33:18;;;;;;;0.30;0.30;;;;;;;7.44;60.46;100608.81;5296117;27;20394;-78
2022/04/09 09:35:54;;;;;;;0.70;0.70;;;;;;;7.59;60.55;100612.91;5265071;27;20037;-78
2022/04/09 09:38:27;;;;;;;0.40;0.40;;;;;;;7.60;59.47;100612.03;5259549;27;20679;-78
2022/04/09 09:40:59;;;;;;;0.60;0.60;;;;;;;7.63;59.48;100611.97;5280882;27;20050;-78
2022/04/09 09:43:29;;;;;;;0.40;0.40;;;;;;;7.62;59.52;100611.09;5293219;27;20235;-78
2022/04/09 09:46:01;;;;;;;0.77;0.52;;;;;;;7.65;58.90;100613.66;5281565;27;20038;-79
2022/04/09 09:48:35;;;;;;;0.60;0.60;;;;;;;7.69;59.76;100630.16;5280548;27;20042;-78
2022/04/09 09:51:05;;;;;;;0.40;0.40;;;;;;;7.69;58.05;100622.31;5259233;27;20043;-78
2022/04/09 09:53:40;;;;;;;0.50;0.50;;;;;;;7.71;58.66;100621.41;5268178;27;20024;-78
2022/04/09 09:56:12;;;;;;;0.60;0.60;;;;;;;7.88;57.83;100612.41;5271935;28;20400;-78
2022/04/09 09:58:43;;;;;;;1.27;1.02;;;;;;;7.92;57.43;100610.59;5303080;27;20404;-78
2022/04/09 10:01:15;;;;;;;0.75;0.75;;;;;;;7.94;57.25;100617.50;5275366;28;20050;-78
2022/04/09 10:03:45;;;;;;;0.40;0.40;;;;;;;7.98;56.49;100610.47;5281115;27;20023;-78
2022/04/09 10:06:16;;;;;;;0.38;0.38;;;;;;;7.99;56.28;100617.44;5278098;28;20051;-78
2022/04/09 10:08:47;;;;;;;2.35;2.25;;;;;;;8.06;57.38;100621.66;5271504;27;20423;-78
2022/04/09 10:11:18;;;;;;;0.65;0.65;;;;;;;8.14;56.30;100626.75;5260366;28;20043;-78
2022/04/09 10:13:54;;;;;;;2.00;1.02;;;;;;;8.12;55.29;100611.13;5272208;27;20030;-78
2022/04/09 10:16:27;;;;;;;0.40;0.40;;;;;;;8.22;55.54;100609.19;5275066;27;20055;-78
2022/04/09 10:19:00;;;;;;;0.40;0.40;;;;;;;8.24;55.81;100612.63;5301075;27;20035;-78
2022/04/09 10:21:34;;;;;;;0.57;0.57;;;;;;;8.35;55.18;100604.56;5277729;27;20039;-79
2022/04/09 10:24:05;;;;;;;;;;;;;;;8.36;55.87;100601.06;5292750;28;20038;-79
2022/04/09 10:26:36;;;;;;;0.38;0.38;;;;;;;8.38;55.23;100614.09;5269132;27;19915;-79
2022/04/09 10:29:08;;;;;;;0.57;0.57;;;;;;;8.33;56.13;100608.97;5286486;28;20034;-79
2022/04/09 10:31:48;;;;;;;0.40;0.40;;;;;;;8.37;55.76;100630.69;5260408;27;20046;-79
2022/04/09 10:34:20;;;;;;;0.30;0.30;;;;;;;8.38;55.54;100622.81;5289593;28;20056;-79
2022/04/09 10:36:57;;;;;;;0.30;0.30;;;;;;;8.44;55.60;100619.19;5315394;27;20031;-79
2022/04/09 10:39:40;;;;;;;0.40;0.40;;;;;;;8.57;55.42;100617.25;5315689;27;20098;-80
2022/04/09 10:42:31;;;;;;;0.40;0.40;;;;;;;8.58;54.75;100600.66;5304983;28;20051;-79
2022/04/09 10:45:04;;;;;;;0.43;0.43;;;;;;;8.65;53.04;100605.75;5266992;27;20039;-80
2022/04/09 10:48:11;;;;;;;0.32;0.32;;;;;;;8.68;52.21;100604.81;5291134;27;20308;-79
2022/04/09 10:51:08;;;;;;;0.52;0.52;;;;;;;8.76;53.89;100608.13;5286105;27;20039;-78
2022/04/09 10:53:41;;;;;;;1.83;0.88;;;;;;;8.85;53.26;100612.28;5276953;27;20039;-79
2022/04/09 10:56:13;;;;;;;0.32;0.32;;;;;;;8.98;52.19;100615.50;5305610;27;20499;-78
2022/04/09 10:59:00;;;;;;;0.70;0.70;;;;;;;9.15;51.96;100607.28;5273537;27;20131;-79
2022/04/09 11:01:46;;;;;;;0.70;0.70;;;;;;;9.29;52.89;100617.44;5283994;27;20039;-80
2022/04/09 11:04:29;;;;;;;1.55;0.63;;;;;;;9.23;50.71;100610.59;5282906;27;20043;-79
2022/04/09 11:07:03;;;;;;;0.30;0.30;;;;;;;9.26;50.99;100605.25;5281418;27;20053;-80
2022/04/09 11:09:54;;;;;;;0.40;0.40;;;;;;;9.37;52.37;100601.53;5259989;27;20047;-80
2022/04/09 11:12:30;;;;;;;1.38;1.10;;;;;;;9.53;50.25;100646.56;5266955;27;20031;-81
2022/04/09 11:15:03;;;;;;;1.05;1.05;;;;;;;9.21;50.83;100638.53;5277876;27;20070;-79
2022/04/09 11:17:39;;;;;;;0.50;0.50;;;;;;;9.20;51.41;100635.97;5257692;27;20032;-79
2022/04/09 11:20:17;;;;;;;27.35;2.38;;;;;;;9.38;53.00;100646.00;5288367;27;20658;-80
2022/04/09 11:22:53;;;;;;;1.33;1.27;;;;;;;9.21;53.09;100640.31;5285366;27;20035;-80
2022/04/09 11:25:29;;;;;;;0.60;0.60;;;;;;;9.48;54.53;100641.44;5292925;27;20382;-80
2022/04/09 11:28:06;;;;;;;0.40;0.40;;;;;;;9.43;54.17;100638.91;5294436;27;20031;-80
2022/04/09 11:30:36;;;;;;;0.30;0.30;;;;;;;9.52;52.21;100626.50;5287357;27;20091;-80
2022/04/09 11:33:15;;;;;;;0.40;0.40;;;;;;;9.53;51.96;100633.47;5279678;27;20031;-79
2022/04/09 11:35:46;;;;;;;0.68;0.68;;;;;;;9.82;51.09;100629.25;5284047;27;20034;-80
2022/04/09 11:38:17;;;;;;;0.32;0.32;;;;;;;10.02;50.53;100632.22;5293034;27;20517;-81
2022/04/09 11:40:47;;;;;;;0.30;0.30;;;;;;;10.07;50.97;100634.72;5286259;27;20092;-81
2022/04/09 11:43:18;;;;;;;0.40;0.40;;;;;;;10.14;49.67;100627.53;5246780;27;20035;-79
2022/04/09 11:45:49;;;;;;;1.25;1.15;;;;;;;10.11;49.03;100627.63;5275446;27;20067;-78
2022/04/09 11:48:26;;;;;;;0.40;0.40;;;;;;;10.00;49.11;100628.78;5256250;27;20058;-79
2022/04/09 11:50:56;;;;;;;0.30;0.30;;;;;;;10.00;49.16;100631.41;5301358;27;20032;-81
2022/04/09 11:53:27;;;;;;;0.30;0.30;;;;;;;9.80;50.31;100655.50;5271079;27;20167;-79
2022/04/09 11:55:59;;;;;;;2.22;1.95;;;;;;;9.57;50.92;100654.31;5280640;27;20027;-79
2022/04/09 11:58:32;;;;;;;0.60;0.60;;;;;;;9.69;51.63;100652.25;5256233;27;20052;-79